sensor_id;sensor_type;location;lat;lon;timestamp;P1;durP1;ratioP1;P2;durP2;ratioP2
12535;SDS011;6334;48.696;2.114;2023-01-29T00:02:11;19.20;;;12.40;;
12535;SDS011;6334;48.696;2.114;2023-01-29T00:04:42;19.67;;;12.43;;
12535;SDS011;6334;48.696;2.114;2023-01-29T00:07:12;20.30;;;12.90;;
12535;SDS011;6334;48.696;2.114;2023-01-29T00:09:43;19.60;;;12.77;;
12535;SDS011;6334;48.696;2.114;2023-01-29T00:12:13;20.00;;;12.30;;
12535;SDS011;6334;48.696;2.114;2023-01-29T00:14:44;19.60;;;12.97;;
12535;SDS011;6334;48.696;2.114;2023-01-29T00:17:14;18.60;;;12.20;;
12535;SDS011;6334;48.696;2.114;2023-01-29T00:19:45;21.70;;;13.10;;
12535;SDS011;6334;48.696;2.114;2023-01-29T00:22:15;22.07;;;12.87;;
12535;SDS011;6334;48.696;2.114;2023-01-29T00:24:46;18.67;;;12.23;;
12535;SDS011;6334;48.696;2.114;2023-01-29T00:27:16;19.93;;;12.33;;
12535;SDS011;6334;48.696;2.114;2023-01-29T00:29:47;17.43;;;11.60;;
12535;SDS011;6334;48.696;2.114;2023-01-29T00:32:17;19.47;;;12.87;;
12535;SDS011;6334;48.696;2.114;2023-01-29T00:34:47;20.33;;;12.50;;
12535;SDS011;6334;48.696;2.114;2023-01-29T00:37:18;19.03;;;11.80;;
12535;SDS011;6334;48.696;2.114;2023-01-29T00:39:48;18.50;;;12.40;;
12535;SDS011;6334;48.696;2.114;2023-01-29T00:42:19;20.17;;;12.47;;
12535;SDS011;6334;48.696;2.114;2023-01-29T00:45:07;20.40;;;12.80;;
12535;SDS011;6334;48.696;2.114;2023-01-29T00:47:38;20.77;;;12.50;;
12535;SDS011;6334;48.696;2.114;2023-01-29T00:50:09;18.37;;;11.87;;
12535;SDS011;6334;48.696;2.114;2023-01-29T00:52:39;19.70;;;13.00;;
12535;SDS011;6334;48.696;2.114;2023-01-29T00:55:09;19.63;;;12.30;;
12535;SDS011;6334;48.696;2.114;2023-01-29T00:57:40;23.17;;;13.57;;
12535;SDS011;6334;48.696;2.114;2023-01-29T01:00:11;23.13;;;13.43;;
12535;SDS011;6334;48.696;2.114;2023-01-29T01:02:41;25.03;;;15.97;;
12535;SDS011;6334;48.696;2.114;2023-01-29T01:05:29;27.53;;;16.97;;
12535;SDS011;6334;48.696;2.114;2023-01-29T01:08:00;25.30;;;15.80;;
12535;SDS011;6334;48.696;2.114;2023-01-29T01:10:31;21.83;;;14.23;;
12535;SDS011;6334;48.696;2.114;2023-01-29T01:13:02;23.70;;;14.17;;
12535;SDS011;6334;48.696;2.114;2023-01-29T01:15:33;26.07;;;15.17;;
12535;SDS011;6334;48.696;2.114;2023-01-29T01:18:04;26.27;;;16.50;;
12535;SDS011;6334;48.696;2.114;2023-01-29T01:20:35;27.90;;;18.37;;
12535;SDS011;6334;48.696;2.114;2023-01-29T01:23:05;30.00;;;18.57;;
12535;SDS011;6334;48.696;2.114;2023-01-29T01:25:35;25.60;;;16.07;;
12535;SDS011;6334;48.696;2.114;2023-01-29T01:28:07;23.43;;;15.00;;
12535;SDS011;6334;48.696;2.114;2023-01-29T01:30:36;20.63;;;13.80;;
12535;SDS011;6334;48.696;2.114;2023-01-29T01:33:07;20.87;;;13.60;;
12535;SDS011;6334;48.696;2.114;2023-01-29T01:35:39;20.40;;;13.43;;
12535;SDS011;6334;48.696;2.114;2023-01-29T01:38:09;21.70;;;13.57;;
12535;SDS011;6334;48.696;2.114;2023-01-29T01:40:43;20.33;;;12.80;;
12535;SDS011;6334;48.696;2.114;2023-01-29T01:43:10;21.03;;;12.63;;
12535;SDS011;6334;48.696;2.114;2023-01-29T01:45:41;22.07;;;14.07;;
12535;SDS011;6334;48.696;2.114;2023-01-29T01:48:14;20.83;;;13.03;;
12535;SDS011;6334;48.696;2.114;2023-01-29T01:50:45;19.13;;;12.93;;
12535;SDS011;6334;48.696;2.114;2023-01-29T01:53:20;20.83;;;12.77;;
12535;SDS011;6334;48.696;2.114;2023-01-29T01:56:02;18.50;;;12.23;;
12535;SDS011;6334;48.696;2.114;2023-01-29T01:58:35;22.13;;;13.80;;
12535;SDS011;6334;48.696;2.114;2023-01-29T02:01:03;21.67;;;13.23;;
12535;SDS011;6334;48.696;2.114;2023-01-29T02:03:34;22.73;;;15.50;;
12535;SDS011;6334;48.696;2.114;2023-01-29T02:06:22;22.77;;;14.37;;
12535;SDS011;6334;48.696;2.114;2023-01-29T02:09:15;23.07;;;14.00;;
12535;SDS011;6334;48.696;2.114;2023-01-29T02:12:00;21.10;;;13.47;;
12535;SDS011;6334;48.696;2.114;2023-01-29T02:14:33;21.13;;;13.40;;
12535;SDS011;6334;48.696;2.114;2023-01-29T02:17:03;20.67;;;13.90;;
12535;SDS011;6334;48.696;2.114;2023-01-29T02:19:36;23.40;;;14.37;;
12535;SDS011;6334;48.696;2.114;2023-01-29T02:31:38;22.30;;;13.83;;
12535;SDS011;6334;48.696;2.114;2023-01-29T02:39:09;19.70;;;13.13;;
12535;SDS011;6334;48.696;2.114;2023-01-29T02:44:34;20.80;;;13.47;;
12535;SDS011;6334;48.696;2.114;2023-01-29T02:47:03;20.03;;;12.67;;
12535;SDS011;6334;48.696;2.114;2023-01-29T02:52:16;22.07;;;13.93;;
12535;SDS011;6334;48.696;2.114;2023-01-29T02:54:52;20.57;;;13.83;;
12535;SDS011;6334;48.696;2.114;2023-01-29T02:57:25;22.23;;;13.97;;
12535;SDS011;6334;48.696;2.114;2023-01-29T02:59:56;23.47;;;13.97;;
12535;SDS011;6334;48.696;2.114;2023-01-29T03:02:39;22.13;;;13.87;;
12535;SDS011;6334;48.696;2.114;2023-01-29T03:05:04;21.17;;;13.83;;
12535;SDS011;6334;48.696;2.114;2023-01-29T03:07:36;20.73;;;13.07;;
12535;SDS011;6334;48.696;2.114;2023-01-29T03:10:12;22.30;;;14.70;;
12535;SDS011;6334;48.696;2.114;2023-01-29T03:13:02;22.43;;;13.90;;
12535;SDS011;6334;48.696;2.114;2023-01-29T03:15:32;23.43;;;13.87;;
12535;SDS011;6334;48.696;2.114;2023-01-29T03:18:05;21.47;;;13.30;;
12535;SDS011;6334;48.696;2.114;2023-01-29T03:20:36;21.10;;;13.53;;
12535;SDS011;6334;48.696;2.114;2023-01-29T03:23:09;24.80;;;14.83;;
12535;SDS011;6334;48.696;2.114;2023-01-29T03:25:38;21.30;;;14.47;;
12535;SDS011;6334;48.696;2.114;2023-01-29T03:28:26;20.60;;;13.10;;
12535;SDS011;6334;48.696;2.114;2023-01-29T03:31:15;23.33;;;14.50;;
12535;SDS011;6334;48.696;2.114;2023-01-29T03:34:22;21.97;;;12.83;;
12535;SDS011;6334;48.696;2.114;2023-01-29T03:36:43;21.07;;;13.37;;
12535;SDS011;6334;48.696;2.114;2023-01-29T03:39:13;20.60;;;13.10;;
12535;SDS011;6334;48.696;2.114;2023-01-29T03:44:34;20.00;;;13.27;;
12535;SDS011;6334;48.696;2.114;2023-01-29T03:47:23;22.03;;;14.03;;
12535;SDS011;6334;48.696;2.114;2023-01-29T03:49:59;21.40;;;13.33;;
12535;SDS011;6334;48.696;2.114;2023-01-29T03:52:45;22.73;;;14.03;;
12535;SDS011;6334;48.696;2.114;2023-01-29T03:55:16;21.50;;;13.80;;
12535;SDS011;6334;48.696;2.114;2023-01-29T03:57:57;24.47;;;13.90;;
12535;SDS011;6334;48.696;2.114;2023-01-29T04:00:27;21.00;;;13.07;;
12535;SDS011;6334;48.696;2.114;2023-01-29T04:05:32;20.30;;;13.50;;
12535;SDS011;6334;48.696;2.114;2023-01-29T04:08:06;21.80;;;13.83;;
12535;SDS011;6334;48.696;2.114;2023-01-29T04:10:31;23.53;;;14.20;;
12535;SDS011;6334;48.696;2.114;2023-01-29T04:13:03;21.70;;;13.77;;
12535;SDS011;6334;48.696;2.114;2023-01-29T04:15:33;22.93;;;14.37;;
12535;SDS011;6334;48.696;2.114;2023-01-29T04:18:03;24.00;;;14.40;;
12535;SDS011;6334;48.696;2.114;2023-01-29T04:20:33;22.47;;;14.80;;
12535;SDS011;6334;48.696;2.114;2023-01-29T04:23:05;22.07;;;14.03;;
12535;SDS011;6334;48.696;2.114;2023-01-29T04:25:42;24.67;;;14.53;;
12535;SDS011;6334;48.696;2.114;2023-01-29T04:33:33;25.03;;;14.70;;
12535;SDS011;6334;48.696;2.114;2023-01-29T04:36:23;21.67;;;13.10;;
12535;SDS011;6334;48.696;2.114;2023-01-29T04:38:51;21.00;;;13.00;;
12535;SDS011;6334;48.696;2.114;2023-01-29T04:41:32;24.83;;;14.23;;
12535;SDS011;6334;48.696;2.114;2023-01-29T04:44:15;22.57;;;14.07;;
12535;SDS011;6334;48.696;2.114;2023-01-29T04:46:50;23.20;;;15.23;;
12535;SDS011;6334;48.696;2.114;2023-01-29T04:57:54;22.13;;;13.90;;
12535;SDS011;6334;48.696;2.114;2023-01-29T05:00:34;20.90;;;13.70;;
12535;SDS011;6334;48.696;2.114;2023-01-29T05:03:03;20.50;;;13.40;;
12535;SDS011;6334;48.696;2.114;2023-01-29T05:05:33;21.63;;;13.93;;
12535;SDS011;6334;48.696;2.114;2023-01-29T05:08:04;23.90;;;14.30;;
12535;SDS011;6334;48.696;2.114;2023-01-29T05:10:34;22.63;;;14.23;;
12535;SDS011;6334;48.696;2.114;2023-01-29T05:13:07;22.10;;;13.80;;
12535;SDS011;6334;48.696;2.114;2023-01-29T05:15:38;25.03;;;14.63;;
12535;SDS011;6334;48.696;2.114;2023-01-29T05:18:13;23.30;;;14.20;;
12535;SDS011;6334;48.696;2.114;2023-01-29T05:20:44;21.97;;;14.07;;
12535;SDS011;6334;48.696;2.114;2023-01-29T05:23:15;20.47;;;13.23;;
12535;SDS011;6334;48.696;2.114;2023-01-29T05:25:45;22.07;;;13.93;;
12535;SDS011;6334;48.696;2.114;2023-01-29T05:28:16;21.27;;;12.67;;
12535;SDS011;6334;48.696;2.114;2023-01-29T05:30:47;20.87;;;13.57;;
12535;SDS011;6334;48.696;2.114;2023-01-29T05:33:18;21.87;;;13.73;;
12535;SDS011;6334;48.696;2.114;2023-01-29T05:35:48;19.97;;;13.27;;
12535;SDS011;6334;48.696;2.114;2023-01-29T05:38:19;25.73;;;14.63;;
12535;SDS011;6334;48.696;2.114;2023-01-29T05:40:49;23.27;;;13.93;;
12535;SDS011;6334;48.696;2.114;2023-01-29T05:43:23;20.83;;;13.70;;
12535;SDS011;6334;48.696;2.114;2023-01-29T05:45:53;21.33;;;13.53;;
12535;SDS011;6334;48.696;2.114;2023-01-29T05:48:26;22.80;;;14.53;;
12535;SDS011;6334;48.696;2.114;2023-01-29T05:50:59;21.13;;;14.63;;
12535;SDS011;6334;48.696;2.114;2023-01-29T05:53:32;22.20;;;14.17;;
12535;SDS011;6334;48.696;2.114;2023-01-29T05:56:03;20.43;;;13.27;;
12535;SDS011;6334;48.696;2.114;2023-01-29T05:58:33;22.30;;;13.87;;
12535;SDS011;6334;48.696;2.114;2023-01-29T06:01:12;19.33;;;12.97;;
12535;SDS011;6334;48.696;2.114;2023-01-29T06:03:45;23.27;;;14.27;;
12535;SDS011;6334;48.696;2.114;2023-01-29T06:06:15;20.83;;;13.43;;
12535;SDS011;6334;48.696;2.114;2023-01-29T06:08:46;21.20;;;13.20;;
12535;SDS011;6334;48.696;2.114;2023-01-29T06:11:16;20.70;;;13.33;;
12535;SDS011;6334;48.696;2.114;2023-01-29T06:13:47;21.37;;;13.93;;
12535;SDS011;6334;48.696;2.114;2023-01-29T06:16:17;22.20;;;14.23;;
12535;SDS011;6334;48.696;2.114;2023-01-29T06:18:47;22.43;;;13.27;;
12535;SDS011;6334;48.696;2.114;2023-01-29T06:21:18;25.30;;;15.33;;
12535;SDS011;6334;48.696;2.114;2023-01-29T06:23:50;23.70;;;14.63;;
12535;SDS011;6334;48.696;2.114;2023-01-29T06:26:19;25.43;;;15.47;;
12535;SDS011;6334;48.696;2.114;2023-01-29T06:28:49;24.33;;;15.57;;
12535;SDS011;6334;48.696;2.114;2023-01-29T06:31:20;28.17;;;16.70;;
12535;SDS011;6334;48.696;2.114;2023-01-29T06:33:50;28.33;;;17.10;;
12535;SDS011;6334;48.696;2.114;2023-01-29T06:36:21;25.03;;;16.00;;
12535;SDS011;6334;48.696;2.114;2023-01-29T06:38:51;23.73;;;14.10;;
12535;SDS011;6334;48.696;2.114;2023-01-29T06:41:22;23.07;;;14.07;;
12535;SDS011;6334;48.696;2.114;2023-01-29T06:43:52;22.30;;;14.23;;
12535;SDS011;6334;48.696;2.114;2023-01-29T06:46:23;28.33;;;16.87;;
12535;SDS011;6334;48.696;2.114;2023-01-29T06:48:56;27.53;;;15.97;;
12535;SDS011;6334;48.696;2.114;2023-01-29T06:51:24;24.83;;;15.23;;
12535;SDS011;6334;48.696;2.114;2023-01-29T06:53:54;24.57;;;15.37;;
12535;SDS011;6334;48.696;2.114;2023-01-29T06:56:25;21.67;;;13.80;;
12535;SDS011;6334;48.696;2.114;2023-01-29T06:58:55;19.70;;;13.30;;
12535;SDS011;6334;48.696;2.114;2023-01-29T07:01:25;21.20;;;14.20;;
12535;SDS011;6334;48.696;2.114;2023-01-29T07:03:56;23.13;;;14.33;;
12535;SDS011;6334;48.696;2.114;2023-01-29T07:06:27;21.87;;;13.57;;
12535;SDS011;6334;48.696;2.114;2023-01-29T07:08:57;20.40;;;13.30;;
12535;SDS011;6334;48.696;2.114;2023-01-29T07:11:27;20.87;;;13.20;;
12535;SDS011;6334;48.696;2.114;2023-01-29T07:13:58;20.90;;;13.33;;
12535;SDS011;6334;48.696;2.114;2023-01-29T07:16:28;23.50;;;14.03;;
12535;SDS011;6334;48.696;2.114;2023-01-29T07:18:59;21.43;;;13.53;;
12535;SDS011;6334;48.696;2.114;2023-01-29T07:21:28;20.60;;;13.00;;
12535;SDS011;6334;48.696;2.114;2023-01-29T07:23:58;21.53;;;13.37;;
12535;SDS011;6334;48.696;2.114;2023-01-29T07:26:28;22.93;;;13.50;;
12535;SDS011;6334;48.696;2.114;2023-01-29T07:28:59;19.83;;;12.83;;
12535;SDS011;6334;48.696;2.114;2023-01-29T07:31:28;22.97;;;13.43;;
12535;SDS011;6334;48.696;2.114;2023-01-29T07:33:59;21.70;;;13.10;;
12535;SDS011;6334;48.696;2.114;2023-01-29T07:36:29;20.17;;;13.23;;
12535;SDS011;6334;48.696;2.114;2023-01-29T07:39:00;21.50;;;13.90;;
12535;SDS011;6334;48.696;2.114;2023-01-29T07:41:30;20.90;;;13.83;;
12535;SDS011;6334;48.696;2.114;2023-01-29T07:44:01;22.43;;;13.30;;
12535;SDS011;6334;48.696;2.114;2023-01-29T07:46:31;22.40;;;12.93;;
12535;SDS011;6334;48.696;2.114;2023-01-29T07:49:02;21.67;;;12.67;;
12535;SDS011;6334;48.696;2.114;2023-01-29T07:51:32;21.53;;;13.10;;
12535;SDS011;6334;48.696;2.114;2023-01-29T07:54:03;22.20;;;14.53;;
12535;SDS011;6334;48.696;2.114;2023-01-29T07:56:33;23.33;;;15.17;;
12535;SDS011;6334;48.696;2.114;2023-01-29T07:59:04;24.63;;;15.07;;
12535;SDS011;6334;48.696;2.114;2023-01-29T08:01:34;25.43;;;16.43;;
12535;SDS011;6334;48.696;2.114;2023-01-29T08:04:04;24.13;;;15.57;;
12535;SDS011;6334;48.696;2.114;2023-01-29T08:06:35;24.17;;;15.60;;
12535;SDS011;6334;48.696;2.114;2023-01-29T08:09:05;24.67;;;15.93;;
12535;SDS011;6334;48.696;2.114;2023-01-29T08:11:36;27.23;;;16.20;;
12535;SDS011;6334;48.696;2.114;2023-01-29T08:14:06;27.00;;;16.50;;
12535;SDS011;6334;48.696;2.114;2023-01-29T08:16:37;26.13;;;17.20;;
12535;SDS011;6334;48.696;2.114;2023-01-29T08:19:07;29.50;;;18.20;;
12535;SDS011;6334;48.696;2.114;2023-01-29T08:21:38;29.23;;;19.03;;
12535;SDS011;6334;48.696;2.114;2023-01-29T08:24:08;27.20;;;18.17;;
12535;SDS011;6334;48.696;2.114;2023-01-29T08:26:39;29.27;;;18.83;;
12535;SDS011;6334;48.696;2.114;2023-01-29T08:29:09;28.70;;;18.40;;
12535;SDS011;6334;48.696;2.114;2023-01-29T08:31:39;23.70;;;15.83;;
12535;SDS011;6334;48.696;2.114;2023-01-29T08:34:10;23.80;;;15.43;;
12535;SDS011;6334;48.696;2.114;2023-01-29T08:36:40;22.97;;;15.50;;
12535;SDS011;6334;48.696;2.114;2023-01-29T08:39:11;22.57;;;14.70;;
12535;SDS011;6334;48.696;2.114;2023-01-29T08:41:41;21.77;;;14.63;;
12535;SDS011;6334;48.696;2.114;2023-01-29T08:44:12;22.83;;;15.10;;
12535;SDS011;6334;48.696;2.114;2023-01-29T08:46:42;22.17;;;14.87;;
12535;SDS011;6334;48.696;2.114;2023-01-29T08:49:13;23.50;;;15.07;;
12535;SDS011;6334;48.696;2.114;2023-01-29T08:51:43;21.70;;;14.63;;
12535;SDS011;6334;48.696;2.114;2023-01-29T08:54:14;22.37;;;14.33;;
12535;SDS011;6334;48.696;2.114;2023-01-29T08:56:44;21.03;;;14.03;;
12535;SDS011;6334;48.696;2.114;2023-01-29T08:59:15;22.13;;;13.90;;
12535;SDS011;6334;48.696;2.114;2023-01-29T09:01:45;20.97;;;13.33;;
12535;SDS011;6334;48.696;2.114;2023-01-29T09:04:15;20.40;;;12.80;;
12535;SDS011;6334;48.696;2.114;2023-01-29T09:06:46;21.13;;;14.00;;
12535;SDS011;6334;48.696;2.114;2023-01-29T09:09:16;20.50;;;13.70;;
12535;SDS011;6334;48.696;2.114;2023-01-29T09:11:47;22.13;;;14.20;;
12535;SDS011;6334;48.696;2.114;2023-01-29T09:14:17;22.00;;;14.63;;
12535;SDS011;6334;48.696;2.114;2023-01-29T09:16:48;22.07;;;13.83;;
12535;SDS011;6334;48.696;2.114;2023-01-29T09:19:18;21.13;;;13.97;;
12535;SDS011;6334;48.696;2.114;2023-01-29T09:21:49;21.93;;;13.50;;
12535;SDS011;6334;48.696;2.114;2023-01-29T09:24:19;21.30;;;13.57;;
12535;SDS011;6334;48.696;2.114;2023-01-29T09:26:50;19.80;;;12.87;;
12535;SDS011;6334;48.696;2.114;2023-01-29T09:29:20;19.13;;;12.07;;
12535;SDS011;6334;48.696;2.114;2023-01-29T09:31:51;20.13;;;13.03;;
12535;SDS011;6334;48.696;2.114;2023-01-29T09:34:21;19.37;;;12.27;;
12535;SDS011;6334;48.696;2.114;2023-01-29T09:36:51;18.33;;;11.73;;
12535;SDS011;6334;48.696;2.114;2023-01-29T09:39:22;19.23;;;12.23;;
12535;SDS011;6334;48.696;2.114;2023-01-29T09:41:57;19.53;;;11.87;;
12535;SDS011;6334;48.696;2.114;2023-01-29T09:47:08;19.83;;;12.10;;
12535;SDS011;6334;48.696;2.114;2023-01-29T09:49:38;19.33;;;12.57;;
12535;SDS011;6334;48.696;2.114;2023-01-29T09:52:10;18.87;;;11.87;;
12535;SDS011;6334;48.696;2.114;2023-01-29T09:57:32;19.67;;;11.50;;
12535;SDS011;6334;48.696;2.114;2023-01-29T09:59:54;18.30;;;11.50;;
12535;SDS011;6334;48.696;2.114;2023-01-29T10:02:47;18.57;;;12.60;;
12535;SDS011;6334;48.696;2.114;2023-01-29T10:05:24;17.63;;;11.20;;
12535;SDS011;6334;48.696;2.114;2023-01-29T10:08:04;17.30;;;11.77;;
12535;SDS011;6334;48.696;2.114;2023-01-29T10:10:42;17.97;;;11.20;;
12535;SDS011;6334;48.696;2.114;2023-01-29T10:15:51;16.93;;;11.03;;
12535;SDS011;6334;48.696;2.114;2023-01-29T10:24:16;18.33;;;11.20;;
12535;SDS011;6334;48.696;2.114;2023-01-29T10:27:01;18.27;;;11.30;;
12535;SDS011;6334;48.696;2.114;2023-01-29T10:29:31;17.30;;;11.77;;
12535;SDS011;6334;48.696;2.114;2023-01-29T10:32:02;18.20;;;12.17;;
12535;SDS011;6334;48.696;2.114;2023-01-29T10:34:34;17.07;;;11.43;;
12535;SDS011;6334;48.696;2.114;2023-01-29T10:37:22;19.00;;;12.13;;
12535;SDS011;6334;48.696;2.114;2023-01-29T10:39:45;17.33;;;11.03;;
12535;SDS011;6334;48.696;2.114;2023-01-29T10:42:18;19.17;;;11.23;;
12535;SDS011;6334;48.696;2.114;2023-01-29T10:47:43;18.50;;;11.43;;
12535;SDS011;6334;48.696;2.114;2023-01-29T10:50:38;18.93;;;11.83;;
12535;SDS011;6334;48.696;2.114;2023-01-29T10:53:18;18.93;;;11.23;;
12535;SDS011;6334;48.696;2.114;2023-01-29T10:58:48;18.13;;;11.73;;
12535;SDS011;6334;48.696;2.114;2023-01-29T11:01:22;20.63;;;13.20;;
12535;SDS011;6334;48.696;2.114;2023-01-29T11:03:58;20.03;;;12.63;;
12535;SDS011;6334;48.696;2.114;2023-01-29T11:06:30;20.67;;;13.00;;
12535;SDS011;6334;48.696;2.114;2023-01-29T11:14:41;19.57;;;12.17;;
12535;SDS011;6334;48.696;2.114;2023-01-29T11:17:17;18.03;;;12.07;;
12535;SDS011;6334;48.696;2.114;2023-01-29T11:19:47;19.23;;;11.53;;
12535;SDS011;6334;48.696;2.114;2023-01-29T11:22:22;19.07;;;11.60;;
12535;SDS011;6334;48.696;2.114;2023-01-29T11:27:45;17.07;;;11.67;;
12535;SDS011;6334;48.696;2.114;2023-01-29T11:30:14;18.43;;;11.00;;
12535;SDS011;6334;48.696;2.114;2023-01-29T11:32:44;16.37;;;11.00;;
12535;SDS011;6334;48.696;2.114;2023-01-29T11:37:44;18.13;;;11.33;;
12535;SDS011;6334;48.696;2.114;2023-01-29T11:42:49;16.33;;;9.83;;
12535;SDS011;6334;48.696;2.114;2023-01-29T11:47:52;15.53;;;9.53;;
12535;SDS011;6334;48.696;2.114;2023-01-29T11:50:23;14.53;;;9.07;;
12535;SDS011;6334;48.696;2.114;2023-01-29T11:52:52;13.20;;;7.93;;
12535;SDS011;6334;48.696;2.114;2023-01-29T11:55:26;13.07;;;8.20;;
12535;SDS011;6334;48.696;2.114;2023-01-29T11:58:03;13.63;;;7.07;;
12535;SDS011;6334;48.696;2.114;2023-01-29T12:00:32;9.13;;;6.23;;
12535;SDS011;6334;48.696;2.114;2023-01-29T12:05:33;10.67;;;6.77;;
12535;SDS011;6334;48.696;2.114;2023-01-29T12:08:09;9.73;;;6.33;;
12535;SDS011;6334;48.696;2.114;2023-01-29T12:10:37;12.27;;;6.60;;
12535;SDS011;6334;48.696;2.114;2023-01-29T12:15:40;11.70;;;6.80;;
12535;SDS011;6334;48.696;2.114;2023-01-29T12:18:15;10.43;;;6.40;;
12535;SDS011;6334;48.696;2.114;2023-01-29T12:21:11;12.13;;;6.33;;
12535;SDS011;6334;48.696;2.114;2023-01-29T12:26:10;7.63;;;4.50;;
12535;SDS011;6334;48.696;2.114;2023-01-29T12:28:48;9.03;;;4.80;;
12535;SDS011;6334;48.696;2.114;2023-01-29T12:37:03;8.37;;;5.23;;
12535;SDS011;6334;48.696;2.114;2023-01-29T12:39:32;7.37;;;4.70;;
12535;SDS011;6334;48.696;2.114;2023-01-29T12:42:10;7.70;;;4.83;;
12535;SDS011;6334;48.696;2.114;2023-01-29T12:44:39;5.10;;;3.73;;
12535;SDS011;6334;48.696;2.114;2023-01-29T12:47:20;7.27;;;4.03;;
12535;SDS011;6334;48.696;2.114;2023-01-29T12:49:38;6.83;;;4.43;;
12535;SDS011;6334;48.696;2.114;2023-01-29T12:52:14;4.77;;;4.00;;
12535;SDS011;6334;48.696;2.114;2023-01-29T12:54:44;5.63;;;4.40;;
12535;SDS011;6334;48.696;2.114;2023-01-29T13:00:10;4.53;;;3.80;;
12535;SDS011;6334;48.696;2.114;2023-01-29T13:02:43;10.10;;;4.07;;
12535;SDS011;6334;48.696;2.114;2023-01-29T13:08:03;9.67;;;4.40;;
12535;SDS011;6334;48.696;2.114;2023-01-29T13:10:34;6.40;;;4.30;;
12535;SDS011;6334;48.696;2.114;2023-01-29T13:13:06;7.03;;;4.07;;
12535;SDS011;6334;48.696;2.114;2023-01-29T13:15:35;6.53;;;4.50;;
12535;SDS011;6334;48.696;2.114;2023-01-29T13:20:59;9.23;;;4.97;;
12535;SDS011;6334;48.696;2.114;2023-01-29T13:23:39;6.17;;;4.00;;
12535;SDS011;6334;48.696;2.114;2023-01-29T13:26:07;7.90;;;4.73;;
12535;SDS011;6334;48.696;2.114;2023-01-29T13:28:38;7.47;;;5.10;;
12535;SDS011;6334;48.696;2.114;2023-01-29T13:33:41;9.07;;;5.23;;
12535;SDS011;6334;48.696;2.114;2023-01-29T13:36:13;6.60;;;4.63;;
12535;SDS011;6334;48.696;2.114;2023-01-29T13:38:42;7.97;;;5.00;;
12535;SDS011;6334;48.696;2.114;2023-01-29T13:41:13;7.07;;;4.63;;
12535;SDS011;6334;48.696;2.114;2023-01-29T13:43:43;7.03;;;4.70;;
12535;SDS011;6334;48.696;2.114;2023-01-29T13:46:16;5.97;;;4.13;;
12535;SDS011;6334;48.696;2.114;2023-01-29T13:48:44;6.20;;;4.03;;
12535;SDS011;6334;48.696;2.114;2023-01-29T13:51:18;6.30;;;4.20;;
12535;SDS011;6334;48.696;2.114;2023-01-29T13:53:54;5.33;;;4.23;;
12535;SDS011;6334;48.696;2.114;2023-01-29T13:56:27;6.97;;;4.63;;
12535;SDS011;6334;48.696;2.114;2023-01-29T13:59:03;5.30;;;4.40;;
12535;SDS011;6334;48.696;2.114;2023-01-29T14:06:49;6.00;;;4.40;;
12535;SDS011;6334;48.696;2.114;2023-01-29T14:09:32;6.93;;;4.20;;
12535;SDS011;6334;48.696;2.114;2023-01-29T14:12:02;6.17;;;4.30;;
12535;SDS011;6334;48.696;2.114;2023-01-29T14:17:17;5.43;;;3.97;;
12535;SDS011;6334;48.696;2.114;2023-01-29T14:19:48;5.33;;;4.40;;
12535;SDS011;6334;48.696;2.114;2023-01-29T14:22:19;5.13;;;4.00;;
12535;SDS011;6334;48.696;2.114;2023-01-29T14:24:54;5.17;;;4.30;;
12535;SDS011;6334;48.696;2.114;2023-01-29T14:27:24;5.13;;;4.27;;
12535;SDS011;6334;48.696;2.114;2023-01-29T14:30:02;5.97;;;4.10;;
12535;SDS011;6334;48.696;2.114;2023-01-29T14:32:31;7.03;;;4.30;;
12535;SDS011;6334;48.696;2.114;2023-01-29T14:35:02;6.33;;;4.43;;
12535;SDS011;6334;48.696;2.114;2023-01-29T14:37:38;4.93;;;4.30;;
12535;SDS011;6334;48.696;2.114;2023-01-29T14:43:03;5.20;;;4.20;;
12535;SDS011;6334;48.696;2.114;2023-01-29T14:45:35;6.43;;;4.20;;
12535;SDS011;6334;48.696;2.114;2023-01-29T14:50:47;5.70;;;4.33;;
12535;SDS011;6334;48.696;2.114;2023-01-29T14:53:21;5.10;;;4.07;;
12535;SDS011;6334;48.696;2.114;2023-01-29T14:58:33;5.60;;;4.10;;
12535;SDS011;6334;48.696;2.114;2023-01-29T15:01:03;5.27;;;4.03;;
12535;SDS011;6334;48.696;2.114;2023-01-29T15:03:45;4.60;;;3.83;;
12535;SDS011;6334;48.696;2.114;2023-01-29T15:06:15;6.20;;;4.20;;
12535;SDS011;6334;48.696;2.114;2023-01-29T15:09:33;4.30;;;3.90;;
12535;SDS011;6334;48.696;2.114;2023-01-29T15:11:29;6.00;;;4.50;;
12535;SDS011;6334;48.696;2.114;2023-01-29T15:14:04;5.60;;;4.20;;
12535;SDS011;6334;48.696;2.114;2023-01-29T15:16:54;6.17;;;4.63;;
12535;SDS011;6334;48.696;2.114;2023-01-29T15:19:16;6.57;;;4.67;;
12535;SDS011;6334;48.696;2.114;2023-01-29T15:24:32;6.10;;;4.40;;
12535;SDS011;6334;48.696;2.114;2023-01-29T15:27:03;7.60;;;5.00;;
12535;SDS011;6334;48.696;2.114;2023-01-29T15:29:33;6.70;;;5.00;;
12535;SDS011;6334;48.696;2.114;2023-01-29T15:32:03;6.33;;;4.27;;
12535;SDS011;6334;48.696;2.114;2023-01-29T15:34:35;7.40;;;4.70;;
12535;SDS011;6334;48.696;2.114;2023-01-29T15:37:05;6.60;;;4.83;;
12535;SDS011;6334;48.696;2.114;2023-01-29T15:39:41;5.83;;;4.60;;
12535;SDS011;6334;48.696;2.114;2023-01-29T15:42:13;5.80;;;4.63;;
12535;SDS011;6334;48.696;2.114;2023-01-29T15:44:43;6.40;;;4.50;;
12535;SDS011;6334;48.696;2.114;2023-01-29T15:47:13;6.83;;;4.80;;
12535;SDS011;6334;48.696;2.114;2023-01-29T15:49:44;6.83;;;4.43;;
12535;SDS011;6334;48.696;2.114;2023-01-29T15:52:16;6.47;;;4.70;;
12535;SDS011;6334;48.696;2.114;2023-01-29T15:54:45;6.17;;;4.53;;
12535;SDS011;6334;48.696;2.114;2023-01-29T15:57:19;5.63;;;4.73;;
12535;SDS011;6334;48.696;2.114;2023-01-29T15:59:48;6.97;;;5.03;;
12535;SDS011;6334;48.696;2.114;2023-01-29T16:05:09;6.73;;;5.07;;
12535;SDS011;6334;48.696;2.114;2023-01-29T16:07:42;8.90;;;5.50;;
12535;SDS011;6334;48.696;2.114;2023-01-29T16:10:24;7.33;;;5.37;;
12535;SDS011;6334;48.696;2.114;2023-01-29T16:12:51;6.33;;;4.97;;
12535;SDS011;6334;48.696;2.114;2023-01-29T16:15:25;6.33;;;5.23;;
12535;SDS011;6334;48.696;2.114;2023-01-29T16:18:02;9.20;;;5.17;;
12535;SDS011;6334;48.696;2.114;2023-01-29T16:20:42;6.73;;;5.27;;
12535;SDS011;6334;48.696;2.114;2023-01-29T16:23:16;10.80;;;5.60;;
12535;SDS011;6334;48.696;2.114;2023-01-29T16:25:45;7.23;;;5.50;;
12535;SDS011;6334;48.696;2.114;2023-01-29T16:28:16;9.53;;;6.20;;
12535;SDS011;6334;48.696;2.114;2023-01-29T16:30:46;7.60;;;5.50;;
12535;SDS011;6334;48.696;2.114;2023-01-29T16:33:16;8.47;;;5.37;;
12535;SDS011;6334;48.696;2.114;2023-01-29T16:35:50;6.70;;;5.27;;
12535;SDS011;6334;48.696;2.114;2023-01-29T16:38:27;10.50;;;5.97;;
12535;SDS011;6334;48.696;2.114;2023-01-29T16:41:06;9.73;;;6.10;;
12535;SDS011;6334;48.696;2.114;2023-01-29T16:43:45;10.70;;;7.33;;
12535;SDS011;6334;48.696;2.114;2023-01-29T16:46:25;10.33;;;6.53;;
12535;SDS011;6334;48.696;2.114;2023-01-29T16:48:54;8.53;;;6.00;;
12535;SDS011;6334;48.696;2.114;2023-01-29T16:51:25;7.90;;;5.73;;
12535;SDS011;6334;48.696;2.114;2023-01-29T16:53:58;9.17;;;6.00;;
12535;SDS011;6334;48.696;2.114;2023-01-29T16:56:38;9.83;;;6.00;;
12535;SDS011;6334;48.696;2.114;2023-01-29T16:59:11;9.10;;;5.83;;
12535;SDS011;6334;48.696;2.114;2023-01-29T17:01:39;10.20;;;5.90;;
12535;SDS011;6334;48.696;2.114;2023-01-29T17:04:11;9.17;;;6.00;;
12535;SDS011;6334;48.696;2.114;2023-01-29T17:06:41;11.27;;;6.53;;
12535;SDS011;6334;48.696;2.114;2023-01-29T17:09:17;10.77;;;7.07;;
12535;SDS011;6334;48.696;2.114;2023-01-29T17:11:41;10.90;;;6.47;;
12535;SDS011;6334;48.696;2.114;2023-01-29T17:14:11;9.57;;;6.43;;
12535;SDS011;6334;48.696;2.114;2023-01-29T17:16:54;9.60;;;6.57;;